Terminal Aerodrome Forecast
Issued by NWS

Home | Current Version | Previous Version | Text Only | Print | Product List | Glossary On
Versions: 1 2 3 4 5 6 7 8 9 10 11 12 13 14 15
341
FTUS45 KRIW 222325
TAFRKS
TAF
KRKS 222325Z 2300/2324 24011G20KT P6SM -SHRA VCTS SCT040CB BKN060
     FM230400 23010KT P6SM -SHRA BKN035
     FM231500 36011G17KT 6SM -SHRASN BKN030
     FM232200 36015G25KT 5SM -SHSN OVC030=

USA.gov is the U.S. government's official web portal to all federal, state and local government web resources and services.